sensor_id;sensor_type;location;lat;lon;timestamp;temperature;humidity
22503;DHT22;11418;48.118;9.992;2023-06-14T00:04:00;8.00;99.90
22503;DHT22;11418;48.118;9.992;2023-06-14T00:08:01;7.90;99.90
22503;DHT22;11418;48.118;9.992;2023-06-14T00:12:03;7.90;99.90
22503;DHT22;11418;48.118;9.992;2023-06-14T00:16:04;7.90;99.90
22503;DHT22;11418;48.118;9.992;2023-06-14T00:20:04;7.80;99.90
22503;DHT22;11418;48.118;9.992;2023-06-14T00:24:08;7.70;99.90
22503;DHT22;11418;48.118;9.992;2023-06-14T00:28:08;7.70;99.90
22503;DHT22;11418;48.118;9.992;2023-06-14T00:32:09;7.70;99.90
22503;DHT22;11418;48.118;9.992;2023-06-14T00:36:09;7.80;99.90
22503;DHT22;11418;48.118;9.992;2023-06-14T00:40:10;7.70;99.90
22503;DHT22;11418;48.118;9.992;2023-06-14T00:44:10;7.50;99.90
22503;DHT22;11418;48.118;9.992;2023-06-14T00:48:11;7.30;99.90
22503;DHT22;11418;48.118;9.992;2023-06-14T00:52:13;7.10;99.90
22503;DHT22;11418;48.118;9.992;2023-06-14T00:56:14;7.10;99.90
22503;DHT22;11418;48.118;9.992;2023-06-14T01:00:16;7.00;99.90
22503;DHT22;11418;48.118;9.992;2023-06-14T01:04:16;7.00;99.90
22503;DHT22;11418;48.118;9.992;2023-06-14T01:16:38;6.50;99.90
22503;DHT22;11418;48.118;9.992;2023-06-14T01:20:39;6.50;99.90
22503;DHT22;11418;48.118;9.992;2023-06-14T01:24:40;6.30;99.90
22503;DHT22;11418;48.118;9.992;2023-06-14T01:28:45;6.20;99.90
22503;DHT22;11418;48.118;9.992;2023-06-14T01:32:48;6.10;99.90
22503;DHT22;11418;48.118;9.992;2023-06-14T01:36:50;6.00;99.90
22503;DHT22;11418;48.118;9.992;2023-06-14T01:40:53;5.80;99.90
22503;DHT22;11418;48.118;9.992;2023-06-14T01:44:54;5.90;99.90
22503;DHT22;11418;48.118;9.992;2023-06-14T01:48:55;5.90;99.90
22503;DHT22;11418;48.118;9.992;2023-06-14T01:52:55;5.90;99.90
22503;DHT22;11418;48.118;9.992;2023-06-14T01:56:56;6.10;99.90
22503;DHT22;11418;48.118;9.992;2023-06-14T02:00:57;5.90;99.90
22503;DHT22;11418;48.118;9.992;2023-06-14T02:04:58;6.00;99.90
22503;DHT22;11418;48.118;9.992;2023-06-14T02:08:58;6.10;99.90
22503;DHT22;11418;48.118;9.992;2023-06-14T02:12:59;6.10;99.90
22503;DHT22;11418;48.118;9.992;2023-06-14T02:16:59;5.80;99.90
22503;DHT22;11418;48.118;9.992;2023-06-14T02:21:01;5.70;99.90
22503;DHT22;11418;48.118;9.992;2023-06-14T02:25:01;5.60;99.90
22503;DHT22;11418;48.118;9.992;2023-06-14T02:29:02;6.40;99.90
22503;DHT22;11418;48.118;9.992;2023-06-14T02:33:02;5.40;99.90
22503;DHT22;11418;48.118;9.992;2023-06-14T02:37:03;5.20;99.90
22503;DHT22;11418;48.118;9.992;2023-06-14T02:41:06;5.40;99.90
22503;DHT22;11418;48.118;9.992;2023-06-14T02:45:07;5.40;99.90
22503;DHT22;11418;48.118;9.992;2023-06-14T02:49:08;5.50;99.90
22503;DHT22;11418;48.118;9.992;2023-06-14T02:53:09;5.60;99.90
22503;DHT22;11418;48.118;9.992;2023-06-14T02:57:09;5.30;99.90
22503;DHT22;11418;48.118;9.992;2023-06-14T03:01:10;4.90;99.90
22503;DHT22;11418;48.118;9.992;2023-06-14T03:05:14;5.20;99.90
22503;DHT22;11418;48.118;9.992;2023-06-14T03:09:14;5.20;99.90
22503;DHT22;11418;48.118;9.992;2023-06-14T03:13:15;5.10;99.90
22503;DHT22;11418;48.118;9.992;2023-06-14T03:17:21;4.90;99.90
22503;DHT22;11418;48.118;9.992;2023-06-14T03:21:22;5.10;99.90
22503;DHT22;11418;48.118;9.992;2023-06-14T03:25:22;5.20;99.90
22503;DHT22;11418;48.118;9.992;2023-06-14T03:29:23;5.30;99.90
22503;DHT22;11418;48.118;9.992;2023-06-14T03:33:23;5.50;99.90
22503;DHT22;11418;48.118;9.992;2023-06-14T03:37:25;5.40;99.90
22503;DHT22;11418;48.118;9.992;2023-06-14T03:41:26;5.50;99.90
22503;DHT22;11418;48.118;9.992;2023-06-14T03:45:26;5.40;99.90
22503;DHT22;11418;48.118;9.992;2023-06-14T03:49:26;5.70;99.90
22503;DHT22;11418;48.118;9.992;2023-06-14T03:53:27;5.90;99.90
22503;DHT22;11418;48.118;9.992;2023-06-14T03:57:29;6.10;99.90
22503;DHT22;11418;48.118;9.992;2023-06-14T04:01:30;6.50;99.90
22503;DHT22;11418;48.118;9.992;2023-06-14T04:05:31;7.00;99.90
22503;DHT22;11418;48.118;9.992;2023-06-14T04:09:32;7.60;99.90
22503;DHT22;11418;48.118;9.992;2023-06-14T04:13:32;8.60;99.90
22503;DHT22;11418;48.118;9.992;2023-06-14T04:17:36;9.10;99.90
22503;DHT22;11418;48.118;9.992;2023-06-14T04:21:37;10.00;99.90
22503;DHT22;11418;48.118;9.992;2023-06-14T04:25:37;10.90;99.90
22503;DHT22;11418;48.118;9.992;2023-06-14T04:29:40;11.30;99.90
22503;DHT22;11418;48.118;9.992;2023-06-14T04:33:43;12.00;99.90
22503;DHT22;11418;48.118;9.992;2023-06-14T04:37:44;12.40;99.90
22503;DHT22;11418;48.118;9.992;2023-06-14T04:41:45;12.90;99.90
22503;DHT22;11418;48.118;9.992;2023-06-14T04:45:47;13.50;99.90
22503;DHT22;11418;48.118;9.992;2023-06-14T04:49:47;14.30;99.90
22503;DHT22;11418;48.118;9.992;2023-06-14T04:53:48;15.00;99.90
22503;DHT22;11418;48.118;9.992;2023-06-14T04:57:49;15.00;99.90
22503;DHT22;11418;48.118;9.992;2023-06-14T05:01:53;15.40;99.90
22503;DHT22;11418;48.118;9.992;2023-06-14T05:05:54;15.10;99.90
22503;DHT22;11418;48.118;9.992;2023-06-14T05:09:55;16.10;99.90
22503;DHT22;11418;48.118;9.992;2023-06-14T05:13:55;16.00;99.90
22503;DHT22;11418;48.118;9.992;2023-06-14T05:17:58;15.80;99.90
22503;DHT22;11418;48.118;9.992;2023-06-14T05:21:59;16.20;99.90
22503;DHT22;11418;48.118;9.992;2023-06-14T05:26:00;16.30;99.90
22503;DHT22;11418;48.118;9.992;2023-06-14T05:30:03;17.30;99.90
22503;DHT22;11418;48.118;9.992;2023-06-14T05:34:04;18.10;99.90
22503;DHT22;11418;48.118;9.992;2023-06-14T05:38:04;18.40;99.90
22503;DHT22;11418;48.118;9.992;2023-06-14T05:42:05;18.60;99.90
22503;DHT22;11418;48.118;9.992;2023-06-14T05:46:06;19.00;99.90
22503;DHT22;11418;48.118;9.992;2023-06-14T05:50:07;19.60;99.90
22503;DHT22;11418;48.118;9.992;2023-06-14T05:54:07;20.00;99.90
22503;DHT22;11418;48.118;9.992;2023-06-14T05:58:08;20.20;99.90
22503;DHT22;11418;48.118;9.992;2023-06-14T06:02:08;20.30;99.90
22503;DHT22;11418;48.118;9.992;2023-06-14T06:06:09;20.60;99.90
22503;DHT22;11418;48.118;9.992;2023-06-14T06:10:09;21.30;98.20
22503;DHT22;11418;48.118;9.992;2023-06-14T06:14:10;21.20;99.10
22503;DHT22;11418;48.118;9.992;2023-06-14T06:18:10;21.10;97.50
22503;DHT22;11418;48.118;9.992;2023-06-14T06:22:11;21.00;97.20
22503;DHT22;11418;48.118;9.992;2023-06-14T06:26:11;20.70;96.50
22503;DHT22;11418;48.118;9.992;2023-06-14T06:30:12;20.90;94.70
22503;DHT22;11418;48.118;9.992;2023-06-14T06:34:12;21.30;95.80
22503;DHT22;11418;48.118;9.992;2023-06-14T06:38:13;21.70;95.60
22503;DHT22;11418;48.118;9.992;2023-06-14T06:42:13;22.20;94.00
22503;DHT22;11418;48.118;9.992;2023-06-14T06:46:14;22.70;92.20
22503;DHT22;11418;48.118;9.992;2023-06-14T06:50:14;23.10;89.30
22503;DHT22;11418;48.118;9.992;2023-06-14T06:54:15;23.30;88.70
22503;DHT22;11418;48.118;9.992;2023-06-14T06:58:16;23.10;88.90
22503;DHT22;11418;48.118;9.992;2023-06-14T07:02:16;23.40;86.10
22503;DHT22;11418;48.118;9.992;2023-06-14T07:06:17;23.30;85.80
22503;DHT22;11418;48.118;9.992;2023-06-14T07:10:19;23.60;82.70
22503;DHT22;11418;48.118;9.992;2023-06-14T07:14:19;23.70;80.50
22503;DHT22;11418;48.118;9.992;2023-06-14T07:18:21;23.60;78.80
22503;DHT22;11418;48.118;9.992;2023-06-14T07:22:22;23.80;78.20
22503;DHT22;11418;48.118;9.992;2023-06-14T07:26:22;23.70;75.80
22503;DHT22;11418;48.118;9.992;2023-06-14T07:30:23;23.90;74.40
22503;DHT22;11418;48.118;9.992;2023-06-14T07:34:26;24.10;74.10
22503;DHT22;11418;48.118;9.992;2023-06-14T07:38:27;24.60;74.10
22503;DHT22;11418;48.118;9.992;2023-06-14T07:42:28;24.80;70.50
22503;DHT22;11418;48.118;9.992;2023-06-14T07:46:28;24.70;66.60
22503;DHT22;11418;48.118;9.992;2023-06-14T07:50:28;24.60;71.70
22503;DHT22;11418;48.118;9.992;2023-06-14T07:54:29;24.90;65.40
22503;DHT22;11418;48.118;9.992;2023-06-14T07:58:30;24.90;64.90
22503;DHT22;11418;48.118;9.992;2023-06-14T08:02:30;24.80;66.20
22503;DHT22;11418;48.118;9.992;2023-06-14T08:06:31;24.30;66.40
22503;DHT22;11418;48.118;9.992;2023-06-14T08:10:31;24.50;66.60
22503;DHT22;11418;48.118;9.992;2023-06-14T08:14:32;24.80;63.80
22503;DHT22;11418;48.118;9.992;2023-06-14T08:18:32;25.90;60.60
22503;DHT22;11418;48.118;9.992;2023-06-14T08:22:33;25.60;60.50
22503;DHT22;11418;48.118;9.992;2023-06-14T08:26:34;25.10;59.90
22503;DHT22;11418;48.118;9.992;2023-06-14T08:30:36;24.90;65.70
22503;DHT22;11418;48.118;9.992;2023-06-14T08:34:37;24.60;64.50
22503;DHT22;11418;48.118;9.992;2023-06-14T08:38:38;25.20;63.10
22503;DHT22;11418;48.118;9.992;2023-06-14T08:42:39;25.40;63.50
22503;DHT22;11418;48.118;9.992;2023-06-14T08:46:40;24.90;61.80
22503;DHT22;11418;48.118;9.992;2023-06-14T08:50:42;25.10;59.50
22503;DHT22;11418;48.118;9.992;2023-06-14T08:54:43;24.80;61.60
22503;DHT22;11418;48.118;9.992;2023-06-14T08:58:45;25.00;61.90
22503;DHT22;11418;48.118;9.992;2023-06-14T09:02:48;24.60;63.10
22503;DHT22;11418;48.118;9.992;2023-06-14T09:06:48;24.30;67.70
22503;DHT22;11418;48.118;9.992;2023-06-14T09:10:53;24.40;63.30
22503;DHT22;11418;48.118;9.992;2023-06-14T09:14:53;24.70;60.70
22503;DHT22;11418;48.118;9.992;2023-06-14T09:18:54;25.40;57.40
22503;DHT22;11418;48.118;9.992;2023-06-14T09:22:54;25.80;59.60
22503;DHT22;11418;48.118;9.992;2023-06-14T09:26:55;25.10;60.70
22503;DHT22;11418;48.118;9.992;2023-06-14T09:30:57;25.30;59.70
22503;DHT22;11418;48.118;9.992;2023-06-14T09:34:58;25.10;61.10
22503;DHT22;11418;48.118;9.992;2023-06-14T09:38:59;24.90;60.60
22503;DHT22;11418;48.118;9.992;2023-06-14T09:43:00;25.50;60.50
22503;DHT22;11418;48.118;9.992;2023-06-14T09:47:01;25.10;57.80
22503;DHT22;11418;48.118;9.992;2023-06-14T09:51:02;25.30;63.30
22503;DHT22;11418;48.118;9.992;2023-06-14T09:55:05;25.60;59.40
22503;DHT22;11418;48.118;9.992;2023-06-14T09:59:12;25.30;58.00
22503;DHT22;11418;48.118;9.992;2023-06-14T10:03:13;23.80;61.90
22503;DHT22;11418;48.118;9.992;2023-06-14T10:07:15;23.80;67.30
22503;DHT22;11418;48.118;9.992;2023-06-14T10:11:18;24.90;60.30
22503;DHT22;11418;48.118;9.992;2023-06-14T10:15:21;25.10;58.50
22503;DHT22;11418;48.118;9.992;2023-06-14T10:19:35;25.20;59.40
22503;DHT22;11418;48.118;9.992;2023-06-14T10:23:43;25.00;59.90
22503;DHT22;11418;48.118;9.992;2023-06-14T10:27:44;24.30;60.50
22503;DHT22;11418;48.118;9.992;2023-06-14T10:31:47;24.20;63.10
22503;DHT22;11418;48.118;9.992;2023-06-14T10:35:48;24.60;59.00
22503;DHT22;11418;48.118;9.992;2023-06-14T10:39:48;24.70;61.30
22503;DHT22;11418;48.118;9.992;2023-06-14T10:43:49;25.40;56.50
22503;DHT22;11418;48.118;9.992;2023-06-14T10:47:49;25.80;55.90
22503;DHT22;11418;48.118;9.992;2023-06-14T10:51:52;27.10;58.20
22503;DHT22;11418;48.118;9.992;2023-06-14T10:55:53;27.30;54.30
22503;DHT22;11418;48.118;9.992;2023-06-14T10:59:53;26.90;52.50
22503;DHT22;11418;48.118;9.992;2023-06-14T11:03:54;27.00;50.90
22503;DHT22;11418;48.118;9.992;2023-06-14T11:12:02;27.70;49.90
22503;DHT22;11418;48.118;9.992;2023-06-14T11:16:09;27.40;50.00
22503;DHT22;11418;48.118;9.992;2023-06-14T11:20:11;26.50;51.00
22503;DHT22;11418;48.118;9.992;2023-06-14T11:24:16;26.20;53.80
22503;DHT22;11418;48.118;9.992;2023-06-14T11:28:17;27.10;49.00
22503;DHT22;11418;48.118;9.992;2023-06-14T11:32:19;27.20;50.90
22503;DHT22;11418;48.118;9.992;2023-06-14T11:36:20;27.60;50.10
22503;DHT22;11418;48.118;9.992;2023-06-14T11:40:22;26.40;51.00
22503;DHT22;11418;48.118;9.992;2023-06-14T11:44:23;26.20;52.70
22503;DHT22;11418;48.118;9.992;2023-06-14T11:48:35;26.70;50.60
22503;DHT22;11418;48.118;9.992;2023-06-14T11:52:36;27.20;50.80
22503;DHT22;11418;48.118;9.992;2023-06-14T11:56:37;27.50;51.00
22503;DHT22;11418;48.118;9.992;2023-06-14T12:00:37;27.50;53.80
22503;DHT22;11418;48.118;9.992;2023-06-14T12:04:40;28.90;48.30
22503;DHT22;11418;48.118;9.992;2023-06-14T12:08:40;29.10;49.90
22503;DHT22;11418;48.118;9.992;2023-06-14T12:16:45;25.80;52.20
22503;DHT22;11418;48.118;9.992;2023-06-14T12:20:49;28.20;51.20
22503;DHT22;11418;48.118;9.992;2023-06-14T12:24:50;29.10;46.50
22503;DHT22;11418;48.118;9.992;2023-06-14T12:28:52;30.70;44.80
22503;DHT22;11418;48.118;9.992;2023-06-14T12:32:55;30.50;44.60
22503;DHT22;11418;48.118;9.992;2023-06-14T12:36:56;29.00;46.90
22503;DHT22;11418;48.118;9.992;2023-06-14T12:40:57;30.00;48.00
22503;DHT22;11418;48.118;9.992;2023-06-14T12:44:57;27.70;48.20
22503;DHT22;11418;48.118;9.992;2023-06-14T12:48:58;27.20;48.70
22503;DHT22;11418;48.118;9.992;2023-06-14T12:52:58;29.40;46.70
22503;DHT22;11418;48.118;9.992;2023-06-14T12:56:59;32.40;43.90
22503;DHT22;11418;48.118;9.992;2023-06-14T13:00:59;34.00;40.90
22503;DHT22;11418;48.118;9.992;2023-06-14T13:05:00;31.80;42.30
22503;DHT22;11418;48.118;9.992;2023-06-14T13:09:01;29.00;45.60
22503;DHT22;11418;48.118;9.992;2023-06-14T13:13:02;27.80;48.10
22503;DHT22;11418;48.118;9.992;2023-06-14T13:17:02;29.80;46.20
22503;DHT22;11418;48.118;9.992;2023-06-14T13:21:03;31.00;45.20
22503;DHT22;11418;48.118;9.992;2023-06-14T13:25:04;30.40;46.20
22503;DHT22;11418;48.118;9.992;2023-06-14T13:29:04;31.00;45.80
22503;DHT22;11418;48.118;9.992;2023-06-14T13:33:05;31.30;42.00
22503;DHT22;11418;48.118;9.992;2023-06-14T13:37:06;29.50;45.40
22503;DHT22;11418;48.118;9.992;2023-06-14T13:41:06;27.50;48.90
22503;DHT22;11418;48.118;9.992;2023-06-14T13:45:07;30.50;44.10
22503;DHT22;11418;48.118;9.992;2023-06-14T13:49:08;31.10;43.50
22503;DHT22;11418;48.118;9.992;2023-06-14T13:53:09;32.00;42.60
22503;DHT22;11418;48.118;9.992;2023-06-14T13:57:09;33.30;39.40
22503;DHT22;11418;48.118;9.992;2023-06-14T14:01:12;32.10;41.50
22503;DHT22;11418;48.118;9.992;2023-06-14T14:05:13;33.70;41.30
22503;DHT22;11418;48.118;9.992;2023-06-14T14:09:13;34.20;38.50
22503;DHT22;11418;48.118;9.992;2023-06-14T14:13:14;33.70;39.60
22503;DHT22;11418;48.118;9.992;2023-06-14T14:17:15;31.50;42.70
22503;DHT22;11418;48.118;9.992;2023-06-14T14:21:15;31.50;41.00
22503;DHT22;11418;48.118;9.992;2023-06-14T14:25:16;29.60;44.10
22503;DHT22;11418;48.118;9.992;2023-06-14T14:29:16;29.30;44.50
22503;DHT22;11418;48.118;9.992;2023-06-14T14:33:17;32.00;42.70
22503;DHT22;11418;48.118;9.992;2023-06-14T14:37:17;33.30;39.30
22503;DHT22;11418;48.118;9.992;2023-06-14T14:41:18;28.40;45.20
22503;DHT22;11418;48.118;9.992;2023-06-14T14:45:18;26.90;47.80
22503;DHT22;11418;48.118;9.992;2023-06-14T14:49:19;28.60;45.90
22503;DHT22;11418;48.118;9.992;2023-06-14T14:53:20;28.90;44.70
22503;DHT22;11418;48.118;9.992;2023-06-14T14:57:21;30.60;44.90
22503;DHT22;11418;48.118;9.992;2023-06-14T15:01:21;30.10;44.50
22503;DHT22;11418;48.118;9.992;2023-06-14T15:05:22;29.60;44.40
22503;DHT22;11418;48.118;9.992;2023-06-14T15:09:22;32.00;43.00
22503;DHT22;11418;48.118;9.992;2023-06-14T15:13:23;33.20;39.30
22503;DHT22;11418;48.118;9.992;2023-06-14T15:17:23;31.30;42.90
22503;DHT22;11418;48.118;9.992;2023-06-14T15:21:24;30.60;42.90
22503;DHT22;11418;48.118;9.992;2023-06-14T15:25:28;30.10;44.30
22503;DHT22;11418;48.118;9.992;2023-06-14T15:29:29;27.20;46.20
22503;DHT22;11418;48.118;9.992;2023-06-14T15:33:30;24.90;52.30
22503;DHT22;11418;48.118;9.992;2023-06-14T15:37:30;24.10;53.00
22503;DHT22;11418;48.118;9.992;2023-06-14T15:41:30;24.20;52.00
22503;DHT22;11418;48.118;9.992;2023-06-14T15:45:31;24.90;51.90
22503;DHT22;11418;48.118;9.992;2023-06-14T15:49:31;24.50;52.10
22503;DHT22;11418;48.118;9.992;2023-06-14T15:53:32;23.90;53.10
22503;DHT22;11418;48.118;9.992;2023-06-14T15:57:34;23.70;55.80
22503;DHT22;11418;48.118;9.992;2023-06-14T16:01:35;23.70;54.90
22503;DHT22;11418;48.118;9.992;2023-06-14T16:05:36;23.70;54.20
22503;DHT22;11418;48.118;9.992;2023-06-14T16:09:37;23.90;55.00
22503;DHT22;11418;48.118;9.992;2023-06-14T16:13:38;24.40;54.60
22503;DHT22;11418;48.118;9.992;2023-06-14T16:17:38;24.90;52.60
22503;DHT22;11418;48.118;9.992;2023-06-14T16:21:39;25.30;52.60
22503;DHT22;11418;48.118;9.992;2023-06-14T16:25:39;25.50;50.40
22503;DHT22;11418;48.118;9.992;2023-06-14T16:29:40;24.90;51.00
22503;DHT22;11418;48.118;9.992;2023-06-14T16:33:41;24.70;50.60
22503;DHT22;11418;48.118;9.992;2023-06-14T16:37:41;24.60;52.30
22503;DHT22;11418;48.118;9.992;2023-06-14T16:41:41;24.50;52.80
22503;DHT22;11418;48.118;9.992;2023-06-14T16:45:42;24.60;52.90
22503;DHT22;11418;48.118;9.992;2023-06-14T16:49:42;24.30;52.50
22503;DHT22;11418;48.118;9.992;2023-06-14T16:53:43;24.10;53.70
22503;DHT22;11418;48.118;9.992;2023-06-14T16:57:43;24.00;55.30
22503;DHT22;11418;48.118;9.992;2023-06-14T17:01:44;24.00;53.50
22503;DHT22;11418;48.118;9.992;2023-06-14T17:05:56;23.90;53.70
22503;DHT22;11418;48.118;9.992;2023-06-14T17:09:57;23.20;54.60
22503;DHT22;11418;48.118;9.992;2023-06-14T17:13:57;22.90;54.70
22503;DHT22;11418;48.118;9.992;2023-06-14T17:17:58;22.70;56.30
22503;DHT22;11418;48.118;9.992;2023-06-14T17:21:58;22.50;56.40
22503;DHT22;11418;48.118;9.992;2023-06-14T17:25:59;22.50;58.10
22503;DHT22;11418;48.118;9.992;2023-06-14T17:29:59;22.10;57.60
22503;DHT22;11418;48.118;9.992;2023-06-14T17:34:00;22.00;59.00
22503;DHT22;11418;48.118;9.992;2023-06-14T17:38:00;21.90;58.50
22503;DHT22;11418;48.118;9.992;2023-06-14T17:42:03;22.10;58.70
22503;DHT22;11418;48.118;9.992;2023-06-14T17:46:03;21.60;59.20
22503;DHT22;11418;48.118;9.992;2023-06-14T17:50:04;21.60;60.00
22503;DHT22;11418;48.118;9.992;2023-06-14T17:54:05;21.30;62.10
22503;DHT22;11418;48.118;9.992;2023-06-14T17:58:06;21.20;60.20
22503;DHT22;11418;48.118;9.992;2023-06-14T18:02:06;21.20;60.10
22503;DHT22;11418;48.118;9.992;2023-06-14T18:06:07;21.10;60.80
22503;DHT22;11418;48.118;9.992;2023-06-14T18:10:08;21.10;60.90
22503;DHT22;11418;48.118;9.992;2023-06-14T18:18:13;20.80;61.90
22503;DHT22;11418;48.118;9.992;2023-06-14T18:22:13;20.50;63.00
22503;DHT22;11418;48.118;9.992;2023-06-14T18:26:14;20.50;62.40
22503;DHT22;11418;48.118;9.992;2023-06-14T18:30:15;20.20;64.20
22503;DHT22;11418;48.118;9.992;2023-06-14T18:34:16;19.80;64.70
22503;DHT22;11418;48.118;9.992;2023-06-14T18:38:16;20.00;64.70
22503;DHT22;11418;48.118;9.992;2023-06-14T18:42:17;20.00;65.90
22503;DHT22;11418;48.118;9.992;2023-06-14T18:46:17;19.70;67.60
22503;DHT22;11418;48.118;9.992;2023-06-14T18:50:18;19.50;69.50
22503;DHT22;11418;48.118;9.992;2023-06-14T18:54:18;19.60;71.70
22503;DHT22;11418;48.118;9.992;2023-06-14T18:58:19;19.00;71.50
22503;DHT22;11418;48.118;9.992;2023-06-14T19:02:19;18.60;73.50
22503;DHT22;11418;48.118;9.992;2023-06-14T19:06:20;18.40;74.90
22503;DHT22;11418;48.118;9.992;2023-06-14T19:10:22;17.50;77.60
22503;DHT22;11418;48.118;9.992;2023-06-14T19:14:23;17.40;79.90
22503;DHT22;11418;48.118;9.992;2023-06-14T19:18:23;17.10;81.70
22503;DHT22;11418;48.118;9.992;2023-06-14T19:22:24;16.80;82.90
22503;DHT22;11418;48.118;9.992;2023-06-14T19:26:25;16.50;84.10
22503;DHT22;11418;48.118;9.992;2023-06-14T19:30:26;16.30;85.60
22503;DHT22;11418;48.118;9.992;2023-06-14T19:34:26;16.00;87.80
22503;DHT22;11418;48.118;9.992;2023-06-14T19:38:27;15.90;88.90
22503;DHT22;11418;48.118;9.992;2023-06-14T19:42:27;15.70;90.50
22503;DHT22;11418;48.118;9.992;2023-06-14T19:46:28;15.50;91.30
22503;DHT22;11418;48.118;9.992;2023-06-14T19:50:28;15.50;91.80
22503;DHT22;11418;48.118;9.992;2023-06-14T19:54:29;15.40;91.40
22503;DHT22;11418;48.118;9.992;2023-06-14T19:58:29;15.40;92.50
22503;DHT22;11418;48.118;9.992;2023-06-14T20:02:30;15.20;92.40
22503;DHT22;11418;48.118;9.992;2023-06-14T20:06:30;15.00;93.50
22503;DHT22;11418;48.118;9.992;2023-06-14T20:10:31;14.80;94.20
22503;DHT22;11418;48.118;9.992;2023-06-14T20:14:31;14.70;95.10
22503;DHT22;11418;48.118;9.992;2023-06-14T20:18:32;14.30;96.30
22503;DHT22;11418;48.118;9.992;2023-06-14T20:22:32;14.30;96.90
22503;DHT22;11418;48.118;9.992;2023-06-14T20:26:37;14.30;97.60
22503;DHT22;11418;48.118;9.992;2023-06-14T20:30:38;14.30;97.90
22503;DHT22;11418;48.118;9.992;2023-06-14T20:34:38;14.50;98.80
22503;DHT22;11418;48.118;9.992;2023-06-14T20:38:39;14.90;98.70
22503;DHT22;11418;48.118;9.992;2023-06-14T20:42:39;14.70;99.30
22503;DHT22;11418;48.118;9.992;2023-06-14T20:46:40;14.40;99.90
22503;DHT22;11418;48.118;9.992;2023-06-14T20:50:42;14.10;99.90
22503;DHT22;11418;48.118;9.992;2023-06-14T20:54:43;14.00;99.90
22503;DHT22;11418;48.118;9.992;2023-06-14T20:58:45;14.30;99.90
22503;DHT22;11418;48.118;9.992;2023-06-14T21:02:45;14.20;99.90
22503;DHT22;11418;48.118;9.992;2023-06-14T21:06:46;14.00;99.90
22503;DHT22;11418;48.118;9.992;2023-06-14T21:10:46;13.50;99.90
22503;DHT22;11418;48.118;9.992;2023-06-14T21:14:46;13.30;99.90
22503;DHT22;11418;48.118;9.992;2023-06-14T21:18:47;13.30;99.90
22503;DHT22;11418;48.118;9.992;2023-06-14T21:22:47;13.00;99.90
22503;DHT22;11418;48.118;9.992;2023-06-14T21:26:48;12.70;99.90
22503;DHT22;11418;48.118;9.992;2023-06-14T21:30:49;12.40;99.90
22503;DHT22;11418;48.118;9.992;2023-06-14T21:34:49;12.30;99.90
22503;DHT22;11418;48.118;9.992;2023-06-14T21:38:50;12.30;99.90
22503;DHT22;11418;48.118;9.992;2023-06-14T21:42:50;12.30;99.90
22503;DHT22;11418;48.118;9.992;2023-06-14T21:46:51;12.60;99.90
22503;DHT22;11418;48.118;9.992;2023-06-14T21:50:51;12.70;99.90
22503;DHT22;11418;48.118;9.992;2023-06-14T21:54:55;12.40;99.90
22503;DHT22;11418;48.118;9.992;2023-06-14T21:58:56;11.90;99.90
22503;DHT22;11418;48.118;9.992;2023-06-14T22:02:57;11.50;99.90
22503;DHT22;11418;48.118;9.992;2023-06-14T22:06:57;11.50;99.90
22503;DHT22;11418;48.118;9.992;2023-06-14T22:10:58;11.50;99.90
22503;DHT22;11418;48.118;9.992;2023-06-14T22:15:01;11.50;99.90
22503;DHT22;11418;48.118;9.992;2023-06-14T22:19:05;11.40;99.90
22503;DHT22;11418;48.118;9.992;2023-06-14T22:23:06;11.50;99.90
22503;DHT22;11418;48.118;9.992;2023-06-14T22:27:08;11.50;99.90
22503;DHT22;11418;48.118;9.992;2023-06-14T22:31:09;11.30;99.90
22503;DHT22;11418;48.118;9.992;2023-06-14T22:35:10;10.90;99.90
22503;DHT22;11418;48.118;9.992;2023-06-14T22:39:11;11.00;99.90
22503;DHT22;11418;48.118;9.992;2023-06-14T22:43:12;10.90;99.90
22503;DHT22;11418;48.118;9.992;2023-06-14T22:47:12;10.90;99.90
22503;DHT22;11418;48.118;9.992;2023-06-14T22:51:20;10.50;99.90
22503;DHT22;11418;48.118;9.992;2023-06-14T22:55:21;10.20;99.90
22503;DHT22;11418;48.118;9.992;2023-06-14T22:59:26;10.10;99.90
22503;DHT22;11418;48.118;9.992;2023-06-14T23:03:28;9.90;99.90
22503;DHT22;11418;48.118;9.992;2023-06-14T23:07:28;10.00;99.90
22503;DHT22;11418;48.118;9.992;2023-06-14T23:11:29;10.10;99.90
22503;DHT22;11418;48.118;9.992;2023-06-14T23:15:30;10.40;99.90
22503;DHT22;11418;48.118;9.992;2023-06-14T23:19:32;10.50;99.90
22503;DHT22;11418;48.118;9.992;2023-06-14T23:23:33;10.40;99.90
22503;DHT22;11418;48.118;9.992;2023-06-14T23:27:36;10.00;99.90
22503;DHT22;11418;48.118;9.992;2023-06-14T23:31:37;9.70;99.90
22503;DHT22;11418;48.118;9.992;2023-06-14T23:35:39;9.70;99.90
22503;DHT22;11418;48.118;9.992;2023-06-14T23:39:40;9.70;99.90
22503;DHT22;11418;48.118;9.992;2023-06-14T23:43:48;9.70;99.90
22503;DHT22;11418;48.118;9.992;2023-06-14T23:47:51;9.90;99.90
22503;DHT22;11418;48.118;9.992;2023-06-14T23:51:52;9.80;99.90
22503;DHT22;11418;48.118;9.992;2023-06-14T23:55:57;9.50;99.90
22503;DHT22;11418;48.118;9.992;2023-06-14T23:59:58;9.40;99.90
